sensor_id;sensor_type;location;lat;lon;timestamp;pressure;altitude;pressure_sealevel;temperature;humidity
76052;BME280;64751;48.708;9.710;2023-02-18T00:00:35;98541.69;;;10.02;80.74
76052;BME280;64751;48.708;9.710;2023-02-18T00:03:04;98540.66;;;10.03;79.64
76052;BME280;64751;48.708;9.710;2023-02-18T00:05:32;98539.03;;;10.02;80.22
76052;BME280;64751;48.708;9.710;2023-02-18T00:07:59;98540.16;;;10.06;79.78
76052;BME280;64751;48.708;9.710;2023-02-18T00:10:27;98537.28;;;10.08;79.66
76052;BME280;64751;48.708;9.710;2023-02-18T00:12:54;98525.09;;;10.07;79.89
76052;BME280;64751;48.708;9.710;2023-02-18T00:15:22;98521.44;;;10.08;79.70
76052;BME280;64751;48.708;9.710;2023-02-18T00:17:50;98510.63;;;10.09;79.24
76052;BME280;64751;48.708;9.710;2023-02-18T00:20:19;98518.00;;;10.07;78.91
76052;BME280;64751;48.708;9.710;2023-02-18T00:22:46;98503.22;;;10.06;78.86
76052;BME280;64751;48.708;9.710;2023-02-18T00:25:14;98514.81;;;10.05;78.96
76052;BME280;64751;48.708;9.710;2023-02-18T00:27:41;98500.53;;;10.01;79.05
76052;BME280;64751;48.708;9.710;2023-02-18T00:30:09;98507.38;;;10.02;79.27
76052;BME280;64751;48.708;9.710;2023-02-18T00:32:37;98499.72;;;10.01;78.92
76052;BME280;64751;48.708;9.710;2023-02-18T00:35:05;98502.41;;;10.06;78.24
76052;BME280;64751;48.708;9.710;2023-02-18T00:37:35;98502.41;;;10.06;78.69
76052;BME280;64751;48.708;9.710;2023-02-18T00:40:03;98492.94;;;10.10;78.54
76052;BME280;64751;48.708;9.710;2023-02-18T00:42:31;98516.53;;;10.16;78.08
76052;BME280;64751;48.708;9.710;2023-02-18T00:44:58;98513.91;;;10.16;78.07
76052;BME280;64751;48.708;9.710;2023-02-18T00:47:26;98503.34;;;10.16;77.54
76052;BME280;64751;48.708;9.710;2023-02-18T00:49:54;98496.16;;;10.12;78.09
76052;BME280;64751;48.708;9.710;2023-02-18T00:52:21;98495.16;;;10.18;77.45
76052;BME280;64751;48.708;9.710;2023-02-18T00:54:50;98500.44;;;10.18;77.88
76052;BME280;64751;48.708;9.710;2023-02-18T00:57:18;98498.34;;;10.20;77.70
76052;BME280;64751;48.708;9.710;2023-02-18T00:59:45;98502.84;;;10.19;77.95
76052;BME280;64751;48.708;9.710;2023-02-18T01:02:13;98495.97;;;10.18;77.72
76052;BME280;64751;48.708;9.710;2023-02-18T01:04:41;98498.06;;;10.16;78.14
76052;BME280;64751;48.708;9.710;2023-02-18T01:07:08;98487.00;;;10.19;77.61
76052;BME280;64751;48.708;9.710;2023-02-18T01:09:36;98481.72;;;10.19;77.96
76052;BME280;64751;48.708;9.710;2023-02-18T01:12:05;98466.56;;;10.10;76.95
76052;BME280;64751;48.708;9.710;2023-02-18T01:14:33;98474.41;;;10.27;76.75
76052;BME280;64751;48.708;9.710;2023-02-18T01:17:00;98488.09;;;10.24;77.63
76052;BME280;64751;48.708;9.710;2023-02-18T01:19:28;98488.59;;;10.20;77.40
76052;BME280;64751;48.708;9.710;2023-02-18T01:21:56;98482.28;;;10.22;77.01
76052;BME280;64751;48.708;9.710;2023-02-18T01:24:23;98497.56;;;10.19;77.91
76052;BME280;64751;48.708;9.710;2023-02-18T01:26:51;98482.00;;;10.23;77.17
76052;BME280;64751;48.708;9.710;2023-02-18T01:29:20;98470.66;;;10.23;77.10
76052;BME280;64751;48.708;9.710;2023-02-18T01:31:47;98461.44;;;10.25;77.09
76052;BME280;64751;48.708;9.710;2023-02-18T01:34:15;98478.03;;;10.20;77.87
76052;BME280;64751;48.708;9.710;2023-02-18T01:36:42;98473.00;;;10.19;77.50
76052;BME280;64751;48.708;9.710;2023-02-18T01:39:10;98462.19;;;10.20;76.94
76052;BME280;64751;48.708;9.710;2023-02-18T01:41:37;98469.63;;;10.24;76.91
76052;BME280;64751;48.708;9.710;2023-02-18T01:44:13;98461.66;;;10.18;77.59
76052;BME280;64751;48.708;9.710;2023-02-18T01:46:42;98477.53;;;10.24;77.12
76052;BME280;64751;48.708;9.710;2023-02-18T01:49:13;98481.47;;;10.21;77.18
76052;BME280;64751;48.708;9.710;2023-02-18T01:51:45;98480.94;;;10.19;76.82
76052;BME280;64751;48.708;9.710;2023-02-18T01:54:17;98462.66;;;10.12;76.55
76052;BME280;64751;48.708;9.710;2023-02-18T01:56:47;98476.44;;;10.19;76.86
76052;BME280;64751;48.708;9.710;2023-02-18T01:59:20;98461.97;;;10.22;75.94
76052;BME280;64751;48.708;9.710;2023-02-18T02:01:51;98472.75;;;10.20;77.08
76052;BME280;64751;48.708;9.710;2023-02-18T02:04:20;98478.34;;;10.24;76.20
76052;BME280;64751;48.708;9.710;2023-02-18T02:06:47;98475.94;;;10.23;76.04
76052;BME280;64751;48.708;9.710;2023-02-18T02:09:16;98464.03;;;10.20;76.25
76052;BME280;64751;48.708;9.710;2023-02-18T02:17:36;98471.66;;;10.16;76.74
76052;BME280;64751;48.708;9.710;2023-02-18T02:20:26;98466.38;;;10.16;76.87
76052;BME280;64751;48.708;9.710;2023-02-18T02:23:24;98459.50;;;10.15;77.39
76052;BME280;64751;48.708;9.710;2023-02-18T02:29:17;98459.75;;;10.14;76.93
76052;BME280;64751;48.708;9.710;2023-02-18T02:32:14;98462.88;;;10.11;77.08
76052;BME280;64751;48.708;9.710;2023-02-18T02:34:52;98463.38;;;10.08;77.46
76052;BME280;64751;48.708;9.710;2023-02-18T02:37:29;98464.66;;;10.05;77.38
76052;BME280;64751;48.708;9.710;2023-02-18T02:40:11;98454.09;;;10.05;77.03
76052;BME280;64751;48.708;9.710;2023-02-18T02:42:45;98455.72;;;10.06;76.83
76052;BME280;64751;48.708;9.710;2023-02-18T02:45:23;98453.31;;;10.05;77.30
76052;BME280;64751;48.708;9.710;2023-02-18T02:47:59;98450.94;;;10.03;77.47
76052;BME280;64751;48.708;9.710;2023-02-18T02:50:37;98448.78;;;10.00;78.10
76052;BME280;64751;48.708;9.710;2023-02-18T02:53:13;98458.78;;;9.98;77.20
76052;BME280;64751;48.708;9.710;2023-02-18T02:55:43;98449.84;;;9.99;77.15
76052;BME280;64751;48.708;9.710;2023-02-18T02:58:13;98444.56;;;9.99;77.77
76052;BME280;64751;48.708;9.710;2023-02-18T03:00:52;98445.09;;;10.01;77.36
76052;BME280;64751;48.708;9.710;2023-02-18T03:03:54;98446.69;;;10.02;77.34
76052;BME280;64751;48.708;9.710;2023-02-18T03:06:57;98443.50;;;10.00;77.64
76052;BME280;64751;48.708;9.710;2023-02-18T03:09:36;98430.81;;;9.97;76.81
76052;BME280;64751;48.708;9.710;2023-02-18T03:12:15;98427.13;;;9.98;77.04
76052;BME280;64751;48.708;9.710;2023-02-18T03:14:52;98425.03;;;10.00;77.13
76052;BME280;64751;48.708;9.710;2023-02-18T03:17:27;98431.91;;;10.01;76.34
76052;BME280;64751;48.708;9.710;2023-02-18T03:20:03;98429.81;;;10.03;76.13
76052;BME280;64751;48.708;9.710;2023-02-18T03:22:39;98431.41;;;10.04;76.19
76052;BME280;64751;48.708;9.710;2023-02-18T03:25:09;98426.91;;;10.05;75.75
76052;BME280;64751;48.708;9.710;2023-02-18T03:27:42;98430.63;;;10.04;76.76
76052;BME280;64751;48.708;9.710;2023-02-18T03:30:15;98424.06;;;10.06;76.69
76052;BME280;64751;48.708;9.710;2023-02-18T03:32:45;98427.72;;;10.05;75.95
76052;BME280;64751;48.708;9.710;2023-02-18T03:35:16;98420.34;;;10.07;76.57
76052;BME280;64751;48.708;9.710;2023-02-18T03:37:49;98412.16;;;10.04;76.35
76052;BME280;64751;48.708;9.710;2023-02-18T03:40:21;98418.25;;;10.09;76.27
76052;BME280;64751;48.708;9.710;2023-02-18T03:42:49;98419.84;;;10.10;76.40
76052;BME280;64751;48.708;9.710;2023-02-18T03:45:16;98417.44;;;10.09;76.11
76052;BME280;64751;48.708;9.710;2023-02-18T03:47:44;98412.50;;;10.12;76.27
76052;BME280;64751;48.708;9.710;2023-02-18T03:50:15;98401.94;;;10.12;75.76
76052;BME280;64751;48.708;9.710;2023-02-18T03:52:42;98405.63;;;10.11;76.16
76052;BME280;64751;48.708;9.710;2023-02-18T03:55:11;98409.31;;;10.10;75.69
76052;BME280;64751;48.708;9.710;2023-02-18T03:57:39;98407.22;;;10.12;75.66
76052;BME280;64751;48.708;9.710;2023-02-18T04:00:08;98409.88;;;10.12;75.92
76052;BME280;64751;48.708;9.710;2023-02-18T04:02:39;98406.22;;;10.18;75.26
76052;BME280;64751;48.708;9.710;2023-02-18T04:05:07;98412.78;;;10.16;75.16
76052;BME280;64751;48.708;9.710;2023-02-18T04:07:35;98407.78;;;10.14;75.53
76052;BME280;64751;48.708;9.710;2023-02-18T04:10:03;98418.34;;;10.14;74.87
76052;BME280;64751;48.708;9.710;2023-02-18T04:12:33;98413.59;;;10.16;75.17
76052;BME280;64751;48.708;9.710;2023-02-18T04:15:00;98426.25;;;10.14;74.77
76052;BME280;64751;48.708;9.710;2023-02-18T04:17:28;98420.97;;;10.14;75.18
76052;BME280;64751;48.708;9.710;2023-02-18T04:19:55;98424.66;;;10.13;75.35
76052;BME280;64751;48.708;9.710;2023-02-18T04:22:23;98418.34;;;10.14;75.41
76052;BME280;64751;48.708;9.710;2023-02-18T04:24:51;98420.47;;;10.17;75.12
76052;BME280;64751;48.708;9.710;2023-02-18T04:27:18;98409.59;;;10.14;74.97
76052;BME280;64751;48.708;9.710;2023-02-18T04:29:47;98409.34;;;10.15;74.90
76052;BME280;64751;48.708;9.710;2023-02-18T04:32:16;98405.13;;;10.14;75.15
76052;BME280;64751;48.708;9.710;2023-02-18T04:34:43;98405.63;;;10.11;74.94
76052;BME280;64751;48.708;9.710;2023-02-18T04:37:11;98409.59;;;10.14;75.01
76052;BME280;64751;48.708;9.710;2023-02-18T04:39:38;98405.63;;;10.11;74.82
76052;BME280;64751;48.708;9.710;2023-02-18T04:42:06;98396.69;;;10.12;74.48
76052;BME280;64751;48.708;9.710;2023-02-18T04:44:34;98388.69;;;10.07;74.38
76052;BME280;64751;48.708;9.710;2023-02-18T04:47:03;98396.84;;;10.06;74.85
76052;BME280;64751;48.708;9.710;2023-02-18T04:49:31;98403.97;;;10.05;75.26
76052;BME280;64751;48.708;9.710;2023-02-18T04:51:58;98394.44;;;10.04;74.66
76052;BME280;64751;48.708;9.710;2023-02-18T04:54:26;98415.00;;;10.02;75.21
76052;BME280;64751;48.708;9.710;2023-02-18T04:56:53;98414.81;;;10.09;74.64
76052;BME280;64751;48.708;9.710;2023-02-18T04:59:21;98402.94;;;10.06;74.70
76052;BME280;64751;48.708;9.710;2023-02-18T05:01:49;98405.31;;;10.08;74.46
76052;BME280;64751;48.708;9.710;2023-02-18T05:04:18;98404.50;;;10.07;74.66
76052;BME280;64751;48.708;9.710;2023-02-18T05:06:45;98406.06;;;10.03;74.57
76052;BME280;64751;48.708;9.710;2023-02-18T05:09:13;98400.25;;;10.01;74.47
76052;BME280;64751;48.708;9.710;2023-02-18T05:11:41;98411.84;;;10.00;74.21
76052;BME280;64751;48.708;9.710;2023-02-18T05:14:08;98415.00;;;9.97;74.80
76052;BME280;64751;48.708;9.710;2023-02-18T05:16:36;98412.59;;;9.96;74.98
76052;BME280;64751;48.708;9.710;2023-02-18T05:19:03;98423.66;;;9.93;74.71
76052;BME280;64751;48.708;9.710;2023-02-18T05:21:32;98415.69;;;9.88;75.22
76052;BME280;64751;48.708;9.710;2023-02-18T05:24:00;98410.63;;;9.81;76.10
76052;BME280;64751;48.708;9.710;2023-02-18T05:26:27;98415.84;;;9.76;75.32
76052;BME280;64751;48.708;9.710;2023-02-18T05:28:55;98414.16;;;9.65;76.12
76052;BME280;64751;48.708;9.710;2023-02-18T05:31:23;98434.03;;;9.73;75.92
76052;BME280;64751;48.708;9.710;2023-02-18T05:33:51;98430.03;;;9.70;76.26
76052;BME280;64751;48.708;9.710;2023-02-18T05:36:18;98426.03;;;9.68;76.64
76052;BME280;64751;48.708;9.710;2023-02-18T05:38:47;98423.16;;;9.69;76.91
76052;BME280;64751;48.708;9.710;2023-02-18T05:41:15;98425.25;;;9.67;76.82
76052;BME280;64751;48.708;9.710;2023-02-18T05:43:43;98419.97;;;9.67;77.14
76052;BME280;64751;48.708;9.710;2023-02-18T05:46:27;98416.53;;;9.67;77.30
76052;BME280;64751;48.708;9.710;2023-02-18T05:48:55;98410.44;;;9.66;77.40
76052;BME280;64751;48.708;9.710;2023-02-18T05:51:23;98408.06;;;9.65;77.30
76052;BME280;64751;48.708;9.710;2023-02-18T05:53:52;98413.09;;;9.66;77.56
76052;BME280;64751;48.708;9.710;2023-02-18T05:56:20;98400.97;;;9.65;77.29
76052;BME280;64751;48.708;9.710;2023-02-18T05:58:48;98404.09;;;9.62;77.61
76052;BME280;64751;48.708;9.710;2023-02-18T06:01:16;98416.78;;;9.65;78.18
76052;BME280;64751;48.708;9.710;2023-02-18T06:03:43;98416.78;;;9.65;78.53
76052;BME280;64751;48.708;9.710;2023-02-18T06:06:11;98413.09;;;9.66;77.93
76052;BME280;64751;48.708;9.710;2023-02-18T06:08:39;98413.88;;;9.67;77.53
76052;BME280;64751;48.708;9.710;2023-02-18T06:11:08;98409.69;;;9.66;78.30
76052;BME280;64751;48.708;9.710;2023-02-18T06:13:35;98415.19;;;9.64;78.63
76052;BME280;64751;48.708;9.710;2023-02-18T06:16:03;98414.16;;;9.65;77.87
76052;BME280;64751;48.708;9.710;2023-02-18T06:18:31;98394.59;;;9.61;77.84
76052;BME280;64751;48.708;9.710;2023-02-18T06:20:58;98409.13;;;9.64;78.63
76052;BME280;64751;48.708;9.710;2023-02-18T06:23:26;98411.19;;;9.62;77.52
76052;BME280;64751;48.708;9.710;2023-02-18T06:25:54;98399.66;;;9.68;78.46
76052;BME280;64751;48.708;9.710;2023-02-18T06:28:23;98392.56;;;9.68;77.85
76052;BME280;64751;48.708;9.710;2023-02-18T06:30:50;98396.28;;;9.72;78.26
76052;BME280;64751;48.708;9.710;2023-02-18T06:33:18;98400.22;;;9.70;78.50
76052;BME280;64751;48.708;9.710;2023-02-18T06:35:52;98410.44;;;9.66;78.51
76052;BME280;64751;48.708;9.710;2023-02-18T06:38:20;98411.50;;;9.65;78.19
76052;BME280;64751;48.708;9.710;2023-02-18T06:40:48;98416.38;;;9.78;77.79
76052;BME280;64751;48.708;9.710;2023-02-18T06:43:16;98405.84;;;9.78;77.84
76052;BME280;64751;48.708;9.710;2023-02-18T06:45:45;98408.22;;;9.80;77.99
76052;BME280;64751;48.708;9.710;2023-02-18T06:48:13;98414.28;;;9.80;77.82
76052;BME280;64751;48.708;9.710;2023-02-18T06:50:42;98410.81;;;9.75;77.68
76052;BME280;64751;48.708;9.710;2023-02-18T06:53:11;98414.28;;;9.80;77.30
76052;BME280;64751;48.708;9.710;2023-02-18T06:55:39;98403.19;;;9.78;77.50
76052;BME280;64751;48.708;9.710;2023-02-18T06:58:08;98410.84;;;9.80;77.59
76052;BME280;64751;48.708;9.710;2023-02-18T07:00:36;98410.34;;;9.83;77.92
76052;BME280;64751;48.708;9.710;2023-02-18T07:03:06;98408.00;;;9.86;77.05
76052;BME280;64751;48.708;9.710;2023-02-18T07:05:34;98416.50;;;9.88;77.53
76052;BME280;64751;48.708;9.710;2023-02-18T07:08:01;98408.06;;;9.91;77.37
76052;BME280;64751;48.708;9.710;2023-02-18T07:10:29;98402.78;;;9.91;77.05
76052;BME280;64751;48.708;9.710;2023-02-18T07:12:56;98403.31;;;9.93;77.26
76052;BME280;64751;48.708;9.710;2023-02-18T07:15:24;98396.47;;;9.92;76.69
76052;BME280;64751;48.708;9.710;2023-02-18T07:17:53;98396.22;;;9.94;77.37
76052;BME280;64751;48.708;9.710;2023-02-18T07:20:22;98385.66;;;9.94;76.46
76052;BME280;64751;48.708;9.710;2023-02-18T07:22:50;98387.25;;;9.95;77.23
76052;BME280;64751;48.708;9.710;2023-02-18T07:25:18;98395.78;;;10.02;76.61
76052;BME280;64751;48.708;9.710;2023-02-18T07:27:46;98389.16;;;10.04;76.35
76052;BME280;64751;48.708;9.710;2023-02-18T07:30:14;98391.59;;;10.06;76.92
76052;BME280;64751;48.708;9.710;2023-02-18T07:32:42;98393.69;;;10.09;76.45
76052;BME280;64751;48.708;9.710;2023-02-18T07:35:12;98384.50;;;10.11;76.38
76052;BME280;64751;48.708;9.710;2023-02-18T07:37:44;98385.53;;;10.10;76.61
76052;BME280;64751;48.708;9.710;2023-02-18T07:40:13;98398.25;;;10.13;76.74
76052;BME280;64751;48.708;9.710;2023-02-18T07:42:41;98390.88;;;10.15;76.56
76052;BME280;64751;48.708;9.710;2023-02-18T07:45:09;98396.41;;;10.14;76.52
76052;BME280;64751;48.708;9.710;2023-02-18T07:47:37;98391.69;;;10.16;76.82
76052;BME280;64751;48.708;9.710;2023-02-18T07:50:06;98386.91;;;10.13;76.79
76052;BME280;64751;48.708;9.710;2023-02-18T07:52:34;98389.56;;;10.18;76.73
76052;BME280;64751;48.708;9.710;2023-02-18T07:55:04;98376.16;;;10.19;76.69
76052;BME280;64751;48.708;9.710;2023-02-18T07:57:31;98372.75;;;10.24;76.02
76052;BME280;64751;48.708;9.710;2023-02-18T08:00:21;98378.56;;;10.26;75.67
76052;BME280;64751;48.708;9.710;2023-02-18T08:02:49;98368.78;;;10.22;75.94
76052;BME280;64751;48.708;9.710;2023-02-18T08:05:17;98370.94;;;10.30;75.92
76052;BME280;64751;48.708;9.710;2023-02-18T08:07:45;98358.03;;;10.38;75.73
76052;BME280;64751;48.708;9.710;2023-02-18T08:10:14;98362.56;;;10.43;75.71
76052;BME280;64751;48.708;9.710;2023-02-18T08:12:41;98352.84;;;10.48;76.26
76052;BME280;64751;48.708;9.710;2023-02-18T08:15:09;98367.38;;;10.56;74.74
76052;BME280;64751;48.708;9.710;2023-02-18T08:17:37;98364.75;;;10.56;74.91
76052;BME280;64751;48.708;9.710;2023-02-18T08:20:05;98352.56;;;10.50;74.88
76052;BME280;64751;48.708;9.710;2023-02-18T08:22:33;98349.94;;;10.50;75.20
76052;BME280;64751;48.708;9.710;2023-02-18T08:25:01;98360.25;;;10.56;74.43
76052;BME280;64751;48.708;9.710;2023-02-18T08:27:30;98368.50;;;10.60;74.51
76052;BME280;64751;48.708;9.710;2023-02-18T08:29:57;98361.06;;;10.57;74.95
76052;BME280;64751;48.708;9.710;2023-02-18T08:32:26;98359.50;;;10.61;75.05
76052;BME280;64751;48.708;9.710;2023-02-18T08:34:54;98368.50;;;10.65;74.34
76052;BME280;64751;48.708;9.710;2023-02-18T08:37:21;98360.34;;;10.66;73.87
76052;BME280;64751;48.708;9.710;2023-02-18T08:39:49;98371.72;;;10.67;73.95
76052;BME280;64751;48.708;9.710;2023-02-18T08:42:17;98360.06;;;10.68;74.03
76052;BME280;64751;48.708;9.710;2023-02-18T08:44:46;98353.75;;;10.69;73.57
76052;BME280;64751;48.708;9.710;2023-02-18T08:47:14;98363.25;;;10.70;73.78
76052;BME280;64751;48.708;9.710;2023-02-18T08:49:41;98359.59;;;10.76;73.79
76052;BME280;64751;48.708;9.710;2023-02-18T08:52:09;98353.00;;;10.83;73.14
76052;BME280;64751;48.708;9.710;2023-02-18T08:54:37;98359.63;;;10.86;73.07
76052;BME280;64751;48.708;9.710;2023-02-18T08:57:04;98369.41;;;10.85;73.07
76052;BME280;64751;48.708;9.710;2023-02-18T08:59:32;98353.03;;;10.88;72.88
76052;BME280;64751;48.708;9.710;2023-02-18T09:02:01;98345.16;;;10.93;72.52
76052;BME280;64751;48.708;9.710;2023-02-18T09:04:29;98342.75;;;10.97;72.31
76052;BME280;64751;48.708;9.710;2023-02-18T09:06:57;98345.47;;;11.07;72.75
76052;BME280;64751;48.708;9.710;2023-02-18T09:09:24;98343.91;;;11.16;71.98
76052;BME280;64751;48.708;9.710;2023-02-18T09:11:52;98302.06;;;11.03;71.75
76052;BME280;64751;48.708;9.710;2023-02-18T09:14:19;98330.19;;;11.29;71.35
76052;BME280;64751;48.708;9.710;2023-02-18T09:16:47;98329.41;;;11.39;71.39
76052;BME280;64751;48.708;9.710;2023-02-18T09:19:17;98336.31;;;11.45;71.26
76052;BME280;64751;48.708;9.710;2023-02-18T09:21:44;98329.44;;;11.54;70.40
76052;BME280;64751;48.708;9.710;2023-02-18T09:24:12;98327.84;;;11.58;70.08
76052;BME280;64751;48.708;9.710;2023-02-18T09:26:39;98336.06;;;11.66;70.27
76052;BME280;64751;48.708;9.710;2023-02-18T09:29:08;98325.47;;;11.66;69.95
76052;BME280;64751;48.708;9.710;2023-02-18T09:31:36;98323.91;;;11.65;70.09
76052;BME280;64751;48.708;9.710;2023-02-18T09:34:05;98330.81;;;11.72;69.66
76052;BME280;64751;48.708;9.710;2023-02-18T09:36:45;98323.66;;;11.77;69.77
76052;BME280;64751;48.708;9.710;2023-02-18T09:39:13;98312.56;;;11.85;69.00
76052;BME280;64751;48.708;9.710;2023-02-18T09:41:45;98301.16;;;11.75;69.02
76052;BME280;64751;48.708;9.710;2023-02-18T09:44:19;98322.59;;;11.88;68.38
76052;BME280;64751;48.708;9.710;2023-02-18T09:46:49;98316.25;;;11.84;68.94
76052;BME280;64751;48.708;9.710;2023-02-18T09:49:23;98312.28;;;11.87;68.95
76052;BME280;64751;48.708;9.710;2023-02-18T09:51:54;98308.84;;;11.96;68.53
76052;BME280;64751;48.708;9.710;2023-02-18T09:54:23;98311.22;;;11.98;68.49
76052;BME280;64751;48.708;9.710;2023-02-18T09:56:51;98317.59;;;11.92;68.53
76052;BME280;64751;48.708;9.710;2023-02-18T09:59:20;98308.84;;;11.91;68.58
76052;BME280;64751;48.708;9.710;2023-02-18T10:01:51;98312.81;;;11.94;68.89
76052;BME280;64751;48.708;9.710;2023-02-18T10:04:23;98308.56;;;11.93;68.90
76052;BME280;64751;48.708;9.710;2023-02-18T10:07:09;98278.69;;;11.72;69.03
76052;BME280;64751;48.708;9.710;2023-02-18T10:10:04;98234.47;;;11.37;68.94
76052;BME280;64751;48.708;9.710;2023-02-18T10:13:03;98231.28;;;11.35;68.90
76052;BME280;64751;48.708;9.710;2023-02-18T10:15:45;98215.94;;;11.32;69.14
76052;BME280;64751;48.708;9.710;2023-02-18T10:18:23;98314.69;;;11.83;69.27
76052;BME280;64751;48.708;9.710;2023-02-18T10:20:57;98293.78;;;11.72;69.57
76052;BME280;64751;48.708;9.710;2023-02-18T10:23:30;98296.69;;;11.85;69.77
76052;BME280;64751;48.708;9.710;2023-02-18T10:26:02;98308.06;;;11.81;69.86
76052;BME280;64751;48.708;9.710;2023-02-18T10:28:31;98305.91;;;11.73;69.69
76052;BME280;64751;48.708;9.710;2023-02-18T10:31:01;98296.38;;;11.66;70.29
76052;BME280;64751;48.708;9.710;2023-02-18T10:33:41;98309.59;;;11.61;70.20
76052;BME280;64751;48.708;9.710;2023-02-18T10:36:22;98311.19;;;11.62;70.41
76052;BME280;64751;48.708;9.710;2023-02-18T10:39:12;98297.69;;;11.54;70.40
76052;BME280;64751;48.708;9.710;2023-02-18T10:41:52;98308.59;;;11.68;70.17
76052;BME280;64751;48.708;9.710;2023-02-18T10:44:28;98309.34;;;11.68;70.32
76052;BME280;64751;48.708;9.710;2023-02-18T10:47:04;98303.56;;;11.71;69.90
76052;BME280;64751;48.708;9.710;2023-02-18T10:49:51;98303.03;;;11.89;69.78
76052;BME280;64751;48.708;9.710;2023-02-18T10:52:22;98276.53;;;11.79;69.99
76052;BME280;64751;48.708;9.710;2023-02-18T10:55:00;98297.19;;;11.97;69.70
76052;BME280;64751;48.708;9.710;2023-02-18T10:57:31;98288.97;;;12.04;69.22
76052;BME280;64751;48.708;9.710;2023-02-18T11:00:01;98288.72;;;12.05;69.02
76052;BME280;64751;48.708;9.710;2023-02-18T11:02:46;98300.09;;;12.11;68.70
76052;BME280;64751;48.708;9.710;2023-02-18T11:05:27;98291.63;;;12.14;68.75
76052;BME280;64751;48.708;9.710;2023-02-18T11:07:57;98302.16;;;12.29;68.56
76052;BME280;64751;48.708;9.710;2023-02-18T11:10:30;98300.03;;;12.41;68.56
76052;BME280;64751;48.708;9.710;2023-02-18T11:13:00;98298.66;;;12.49;68.00
76052;BME280;64751;48.708;9.710;2023-02-18T11:15:29;98279.59;;;12.47;67.73
76052;BME280;64751;48.708;9.710;2023-02-18T11:18:12;98264.56;;;12.37;67.12
76052;BME280;64751;48.708;9.710;2023-02-18T11:20:40;98276.13;;;12.56;67.21
76052;BME280;64751;48.708;9.710;2023-02-18T11:23:17;98276.16;;;12.51;67.23
76052;BME280;64751;48.708;9.710;2023-02-18T11:25:55;98272.97;;;12.54;66.89
76052;BME280;64751;48.708;9.710;2023-02-18T11:28:41;98252.56;;;12.55;66.07
76052;BME280;64751;48.708;9.710;2023-02-18T11:31:16;98260.22;;;12.61;66.47
76052;BME280;64751;48.708;9.710;2023-02-18T11:33:49;98253.84;;;12.67;66.01
76052;BME280;64751;48.708;9.710;2023-02-18T11:36:21;98247.19;;;12.70;66.19
76052;BME280;64751;48.708;9.710;2023-02-18T11:38:52;98246.91;;;12.76;66.50
76052;BME280;64751;48.708;9.710;2023-02-18T11:41:37;98243.19;;;12.77;66.38
76052;BME280;64751;48.708;9.710;2023-02-18T11:44:17;98230.47;;;12.74;65.25
76052;BME280;64751;48.708;9.710;2023-02-18T11:46:57;98228.34;;;12.76;64.82
76052;BME280;64751;48.708;9.710;2023-02-18T11:49:25;98240.47;;;12.87;65.47
76052;BME280;64751;48.708;9.710;2023-02-18T11:52:03;98228.50;;;13.00;65.61
76052;BME280;64751;48.708;9.710;2023-02-18T11:54:32;98234.78;;;13.14;65.83
76052;BME280;64751;48.708;9.710;2023-02-18T11:57:04;98234.75;;;13.19;64.12
76052;BME280;64751;48.708;9.710;2023-02-18T11:59:35;98225.47;;;13.22;64.51
76052;BME280;64751;48.708;9.710;2023-02-18T12:02:20;98229.75;;;13.18;64.39
76052;BME280;64751;48.708;9.710;2023-02-18T12:04:55;98222.28;;;13.25;64.82
76052;BME280;64751;48.708;9.710;2023-02-18T12:07:28;98225.50;;;13.12;64.35
76052;BME280;64751;48.708;9.710;2023-02-18T12:10:02;98219.19;;;13.07;64.47
76052;BME280;64751;48.708;9.710;2023-02-18T12:12:37;98213.84;;;13.13;64.82
76052;BME280;64751;48.708;9.710;2023-02-18T12:15:13;98212.50;;;13.15;65.00
76052;BME280;64751;48.708;9.710;2023-02-18T12:17:54;98209.06;;;13.15;64.03
76052;BME280;64751;48.708;9.710;2023-02-18T12:20:40;98159.47;;;12.71;64.65
76052;BME280;64751;48.708;9.710;2023-02-18T12:23:18;98209.41;;;12.98;64.32
76052;BME280;64751;48.708;9.710;2023-02-18T12:25:54;98182.25;;;12.72;64.16
76052;BME280;64751;48.708;9.710;2023-02-18T12:28:40;98208.56;;;13.02;64.46
76052;BME280;64751;48.708;9.710;2023-02-18T12:31:21;98215.25;;;13.00;64.78
76052;BME280;64751;48.708;9.710;2023-02-18T12:34:07;98204.41;;;12.91;64.77
76052;BME280;64751;48.708;9.710;2023-02-18T12:36:53;98194.91;;;12.85;64.93
76052;BME280;64751;48.708;9.710;2023-02-18T12:39:34;98195.38;;;12.97;64.85
76052;BME280;64751;48.708;9.710;2023-02-18T12:42:16;98195.09;;;12.99;64.94
76052;BME280;64751;48.708;9.710;2023-02-18T12:44:58;98185.78;;;13.06;64.15
76052;BME280;64751;48.708;9.710;2023-02-18T12:47:57;98186.31;;;13.08;63.45
76052;BME280;64751;48.708;9.710;2023-02-18T12:50:39;98172.75;;;13.10;63.35
76052;BME280;64751;48.708;9.710;2023-02-18T12:53:33;98170.69;;;13.02;63.68
76052;BME280;64751;48.708;9.710;2023-02-18T12:56:26;98170.69;;;13.02;64.00
76052;BME280;64751;48.708;9.710;2023-02-18T12:59:06;98170.69;;;13.02;63.42
76052;BME280;64751;48.708;9.710;2023-02-18T13:01:43;98163.25;;;12.99;63.31
76052;BME280;64751;48.708;9.710;2023-02-18T13:04:35;98168.28;;;13.00;63.88
76052;BME280;64751;48.708;9.710;2023-02-18T13:07:34;98159.81;;;12.98;63.20
76052;BME280;64751;48.708;9.710;2023-02-18T13:10:17;98161.16;;;12.96;63.73
76052;BME280;64751;48.708;9.710;2023-02-18T13:12:51;98158.56;;;12.91;62.94
76052;BME280;64751;48.708;9.710;2023-02-18T13:15:35;98159.09;;;12.88;63.35
76052;BME280;64751;48.708;9.710;2023-02-18T13:18:11;98161.22;;;12.91;63.48
76052;BME280;64751;48.708;9.710;2023-02-18T13:20:44;98164.91;;;12.90;63.82
76052;BME280;64751;48.708;9.710;2023-02-18T13:23:17;98159.13;;;12.83;63.80
76052;BME280;64751;48.708;9.710;2023-02-18T13:25:47;98154.34;;;12.85;63.04
76052;BME280;64751;48.708;9.710;2023-02-18T13:28:22;98158.88;;;12.84;63.33
76052;BME280;64751;48.708;9.710;2023-02-18T13:31:03;98148.28;;;12.79;63.45
76052;BME280;64751;48.708;9.710;2023-02-18T13:33:42;98154.97;;;12.72;63.38
76052;BME280;64751;48.708;9.710;2023-02-18T13:36:22;98146.00;;;12.63;62.89